sensor_id;sensor_type;location;lat;lon;timestamp;P1;durP1;ratioP1;P2;durP2;ratioP2
4595;SDS011;2310;49.978;8.742;2023-02-24T00:02:33;36.27;;;25.70;;
4595;SDS011;2310;49.978;8.742;2023-02-24T00:06:35;36.10;;;25.93;;
4595;SDS011;2310;49.978;8.742;2023-02-24T00:10:38;30.83;;;23.60;;
4595;SDS011;2310;49.978;8.742;2023-02-24T00:14:40;32.13;;;23.33;;
4595;SDS011;2310;49.978;8.742;2023-02-24T00:18:44;39.00;;;26.20;;
4595;SDS011;2310;49.978;8.742;2023-02-24T00:22:45;34.83;;;25.50;;
4595;SDS011;2310;49.978;8.742;2023-02-24T00:26:51;33.20;;;26.20;;
4595;SDS011;2310;49.978;8.742;2023-02-24T00:31:00;35.80;;;25.80;;
4595;SDS011;2310;49.978;8.742;2023-02-24T00:35:06;36.70;;;24.67;;
4595;SDS011;2310;49.978;8.742;2023-02-24T00:39:09;31.97;;;21.93;;
4595;SDS011;2310;49.978;8.742;2023-02-24T00:43:11;27.30;;;20.77;;
4595;SDS011;2310;49.978;8.742;2023-02-24T00:47:13;28.50;;;20.97;;
4595;SDS011;2310;49.978;8.742;2023-02-24T00:51:18;27.97;;;20.20;;
4595;SDS011;2310;49.978;8.742;2023-02-24T00:55:24;28.30;;;19.97;;
4595;SDS011;2310;49.978;8.742;2023-02-24T00:59:27;27.63;;;20.60;;
4595;SDS011;2310;49.978;8.742;2023-02-24T01:03:29;31.07;;;20.80;;
4595;SDS011;2310;49.978;8.742;2023-02-24T01:07:31;26.43;;;19.57;;
4595;SDS011;2310;49.978;8.742;2023-02-24T01:11:34;24.83;;;17.93;;
4595;SDS011;2310;49.978;8.742;2023-02-24T01:15:58;23.23;;;18.57;;
4595;SDS011;2310;49.978;8.742;2023-02-24T01:20:01;29.03;;;19.53;;
4595;SDS011;2310;49.978;8.742;2023-02-24T01:24:05;27.20;;;18.73;;
4595;SDS011;2310;49.978;8.742;2023-02-24T01:28:06;28.13;;;20.03;;
4595;SDS011;2310;49.978;8.742;2023-02-24T01:32:12;28.83;;;21.00;;
4595;SDS011;2310;49.978;8.742;2023-02-24T01:36:18;30.00;;;20.67;;
4595;SDS011;2310;49.978;8.742;2023-02-24T01:40:21;31.13;;;21.40;;
4595;SDS011;2310;49.978;8.742;2023-02-24T01:48:32;25.77;;;19.53;;
4595;SDS011;2310;49.978;8.742;2023-02-24T01:52:34;27.87;;;20.50;;
4595;SDS011;2310;49.978;8.742;2023-02-24T01:56:37;26.80;;;20.43;;
4595;SDS011;2310;49.978;8.742;2023-02-24T02:00:40;27.40;;;20.20;;
4595;SDS011;2310;49.978;8.742;2023-02-24T02:08:51;26.23;;;18.33;;
4595;SDS011;2310;49.978;8.742;2023-02-24T02:12:52;28.67;;;18.20;;
4595;SDS011;2310;49.978;8.742;2023-02-24T02:25:38;30.43;;;20.47;;
4595;SDS011;2310;49.978;8.742;2023-02-24T02:29:45;28.77;;;19.90;;
4595;SDS011;2310;49.978;8.742;2023-02-24T02:38:08;25.53;;;18.23;;
4595;SDS011;2310;49.978;8.742;2023-02-24T02:42:20;28.80;;;20.10;;
4595;SDS011;2310;49.978;8.742;2023-02-24T02:46:31;28.07;;;20.37;;
4595;SDS011;2310;49.978;8.742;2023-02-24T02:54:44;28.50;;;19.00;;
4595;SDS011;2310;49.978;8.742;2023-02-24T02:58:51;29.43;;;19.10;;
4595;SDS011;2310;49.978;8.742;2023-02-24T03:02:57;25.80;;;18.33;;
4595;SDS011;2310;49.978;8.742;2023-02-24T03:07:02;25.67;;;17.47;;
4595;SDS011;2310;49.978;8.742;2023-02-24T03:11:06;26.10;;;19.77;;
4595;SDS011;2310;49.978;8.742;2023-02-24T03:15:10;28.23;;;19.37;;
4595;SDS011;2310;49.978;8.742;2023-02-24T03:19:14;30.13;;;20.53;;
4595;SDS011;2310;49.978;8.742;2023-02-24T03:23:20;27.17;;;19.00;;
4595;SDS011;2310;49.978;8.742;2023-02-24T03:27:37;28.30;;;18.27;;
4595;SDS011;2310;49.978;8.742;2023-02-24T03:35:50;26.50;;;17.27;;
4595;SDS011;2310;49.978;8.742;2023-02-24T03:39:52;26.80;;;17.23;;
4595;SDS011;2310;49.978;8.742;2023-02-24T03:43:57;26.40;;;17.47;;
4595;SDS011;2310;49.978;8.742;2023-02-24T03:48:00;29.27;;;18.53;;
4595;SDS011;2310;49.978;8.742;2023-02-24T04:00:29;29.20;;;18.80;;
4595;SDS011;2310;49.978;8.742;2023-02-24T04:04:39;28.20;;;17.70;;
4595;SDS011;2310;49.978;8.742;2023-02-24T04:08:55;29.07;;;19.67;;
4595;SDS011;2310;49.978;8.742;2023-02-24T04:13:00;31.97;;;20.53;;
4595;SDS011;2310;49.978;8.742;2023-02-24T04:17:12;29.97;;;18.00;;
4595;SDS011;2310;49.978;8.742;2023-02-24T04:21:30;28.70;;;16.67;;
4595;SDS011;2310;49.978;8.742;2023-02-24T04:25:32;33.20;;;20.37;;
4595;SDS011;2310;49.978;8.742;2023-02-24T04:29:35;29.17;;;18.43;;
4595;SDS011;2310;49.978;8.742;2023-02-24T04:33:45;30.17;;;17.80;;
4595;SDS011;2310;49.978;8.742;2023-02-24T04:37:51;27.27;;;18.80;;
4595;SDS011;2310;49.978;8.742;2023-02-24T04:41:52;27.40;;;18.93;;
4595;SDS011;2310;49.978;8.742;2023-02-24T04:45:54;25.30;;;17.20;;
4595;SDS011;2310;49.978;8.742;2023-02-24T04:49:56;28.80;;;18.43;;
4595;SDS011;2310;49.978;8.742;2023-02-24T04:53:57;27.73;;;18.07;;
4595;SDS011;2310;49.978;8.742;2023-02-24T04:58:12;31.03;;;19.70;;
4595;SDS011;2310;49.978;8.742;2023-02-24T05:02:10;30.37;;;17.43;;
4595;SDS011;2310;49.978;8.742;2023-02-24T05:06:15;29.50;;;18.73;;
4595;SDS011;2310;49.978;8.742;2023-02-24T05:10:17;29.73;;;18.90;;
4595;SDS011;2310;49.978;8.742;2023-02-24T05:14:19;32.00;;;20.07;;
4595;SDS011;2310;49.978;8.742;2023-02-24T05:18:21;27.10;;;18.87;;
4595;SDS011;2310;49.978;8.742;2023-02-24T05:22:24;26.80;;;17.13;;
4595;SDS011;2310;49.978;8.742;2023-02-24T05:26:25;27.47;;;18.03;;
4595;SDS011;2310;49.978;8.742;2023-02-24T05:30:27;28.80;;;18.80;;
4595;SDS011;2310;49.978;8.742;2023-02-24T05:34:29;28.57;;;18.37;;
4595;SDS011;2310;49.978;8.742;2023-02-24T05:38:31;29.40;;;18.40;;
4595;SDS011;2310;49.978;8.742;2023-02-24T05:42:34;29.10;;;18.93;;
4595;SDS011;2310;49.978;8.742;2023-02-24T05:46:36;28.47;;;18.37;;
4595;SDS011;2310;49.978;8.742;2023-02-24T05:50:40;29.63;;;18.20;;
4595;SDS011;2310;49.978;8.742;2023-02-24T05:54:44;32.83;;;21.37;;
4595;SDS011;2310;49.978;8.742;2023-02-24T05:58:48;29.73;;;19.50;;
4595;SDS011;2310;49.978;8.742;2023-02-24T06:02:54;31.87;;;19.07;;
4595;SDS011;2310;49.978;8.742;2023-02-24T06:06:58;29.40;;;19.50;;
4595;SDS011;2310;49.978;8.742;2023-02-24T06:11:03;26.87;;;18.10;;
4595;SDS011;2310;49.978;8.742;2023-02-24T06:15:09;28.53;;;17.93;;
4595;SDS011;2310;49.978;8.742;2023-02-24T06:19:10;36.00;;;20.20;;
4595;SDS011;2310;49.978;8.742;2023-02-24T06:23:15;30.63;;;19.43;;
4595;SDS011;2310;49.978;8.742;2023-02-24T06:27:20;30.77;;;19.77;;
4595;SDS011;2310;49.978;8.742;2023-02-24T06:31:24;30.93;;;18.63;;
4595;SDS011;2310;49.978;8.742;2023-02-24T06:35:29;29.20;;;18.33;;
4595;SDS011;2310;49.978;8.742;2023-02-24T06:39:33;30.60;;;19.43;;
4595;SDS011;2310;49.978;8.742;2023-02-24T06:43:41;31.07;;;18.70;;
4595;SDS011;2310;49.978;8.742;2023-02-24T06:47:44;35.87;;;20.60;;
4595;SDS011;2310;49.978;8.742;2023-02-24T06:51:47;32.07;;;20.00;;
4595;SDS011;2310;49.978;8.742;2023-02-24T06:55:50;34.17;;;20.60;;
4595;SDS011;2310;49.978;8.742;2023-02-24T06:59:51;31.90;;;20.47;;
4595;SDS011;2310;49.978;8.742;2023-02-24T07:03:52;30.83;;;21.23;;
4595;SDS011;2310;49.978;8.742;2023-02-24T07:08:09;30.97;;;19.33;;
4595;SDS011;2310;49.978;8.742;2023-02-24T07:12:10;29.33;;;20.27;;
4595;SDS011;2310;49.978;8.742;2023-02-24T07:16:13;31.13;;;21.10;;
4595;SDS011;2310;49.978;8.742;2023-02-24T07:20:16;32.80;;;20.40;;
4595;SDS011;2310;49.978;8.742;2023-02-24T07:24:20;31.37;;;21.93;;
4595;SDS011;2310;49.978;8.742;2023-02-24T07:28:27;35.30;;;23.70;;
4595;SDS011;2310;49.978;8.742;2023-02-24T07:32:28;34.93;;;23.73;;
4595;SDS011;2310;49.978;8.742;2023-02-24T07:36:30;32.10;;;22.23;;
4595;SDS011;2310;49.978;8.742;2023-02-24T07:40:33;33.50;;;23.17;;
4595;SDS011;2310;49.978;8.742;2023-02-24T07:44:36;39.57;;;28.67;;
4595;SDS011;2310;49.978;8.742;2023-02-24T07:48:39;37.07;;;24.00;;
4595;SDS011;2310;49.978;8.742;2023-02-24T07:52:47;34.97;;;24.27;;
4595;SDS011;2310;49.978;8.742;2023-02-24T07:56:48;37.10;;;25.57;;
4595;SDS011;2310;49.978;8.742;2023-02-24T08:01:00;39.37;;;25.17;;
4595;SDS011;2310;49.978;8.742;2023-02-24T08:05:03;32.23;;;23.27;;
4595;SDS011;2310;49.978;8.742;2023-02-24T08:09:07;36.90;;;25.20;;
4595;SDS011;2310;49.978;8.742;2023-02-24T08:13:18;35.70;;;23.97;;
4595;SDS011;2310;49.978;8.742;2023-02-24T08:17:20;42.50;;;30.80;;
4595;SDS011;2310;49.978;8.742;2023-02-24T08:21:23;32.30;;;22.90;;
4595;SDS011;2310;49.978;8.742;2023-02-24T08:25:27;34.33;;;23.30;;
4595;SDS011;2310;49.978;8.742;2023-02-24T08:29:36;35.60;;;23.00;;
4595;SDS011;2310;49.978;8.742;2023-02-24T08:33:43;29.90;;;22.40;;
4595;SDS011;2310;49.978;8.742;2023-02-24T08:37:45;29.80;;;22.77;;
4595;SDS011;2310;49.978;8.742;2023-02-24T08:41:48;33.33;;;22.63;;
4595;SDS011;2310;49.978;8.742;2023-02-24T08:45:55;35.13;;;22.77;;
4595;SDS011;2310;49.978;8.742;2023-02-24T08:50:00;31.87;;;22.37;;
4595;SDS011;2310;49.978;8.742;2023-02-24T08:54:03;32.83;;;22.73;;
4595;SDS011;2310;49.978;8.742;2023-02-24T08:58:07;34.60;;;23.93;;
4595;SDS011;2310;49.978;8.742;2023-02-24T09:02:12;29.80;;;21.37;;
4595;SDS011;2310;49.978;8.742;2023-02-24T09:06:19;32.27;;;23.40;;
4595;SDS011;2310;49.978;8.742;2023-02-24T09:10:24;34.70;;;23.03;;
4595;SDS011;2310;49.978;8.742;2023-02-24T09:14:28;33.13;;;22.60;;
4595;SDS011;2310;49.978;8.742;2023-02-24T09:18:33;33.27;;;22.20;;
4595;SDS011;2310;49.978;8.742;2023-02-24T09:22:36;34.53;;;23.47;;
4595;SDS011;2310;49.978;8.742;2023-02-24T09:26:45;32.53;;;23.10;;
4595;SDS011;2310;49.978;8.742;2023-02-24T09:30:51;37.27;;;26.00;;
4595;SDS011;2310;49.978;8.742;2023-02-24T09:34:57;31.80;;;22.70;;
4595;SDS011;2310;49.978;8.742;2023-02-24T09:38:58;32.03;;;23.63;;
4595;SDS011;2310;49.978;8.742;2023-02-24T09:43:02;35.57;;;23.07;;
4595;SDS011;2310;49.978;8.742;2023-02-24T09:47:16;31.40;;;24.30;;
4595;SDS011;2310;49.978;8.742;2023-02-24T09:51:40;28.67;;;20.73;;
4595;SDS011;2310;49.978;8.742;2023-02-24T10:00:06;28.30;;;20.77;;
4595;SDS011;2310;49.978;8.742;2023-02-24T10:04:40;26.93;;;19.47;;
4595;SDS011;2310;49.978;8.742;2023-02-24T10:08:58;26.00;;;19.07;;
4595;SDS011;2310;49.978;8.742;2023-02-24T10:13:11;31.53;;;22.60;;
4595;SDS011;2310;49.978;8.742;2023-02-24T10:17:24;31.90;;;22.30;;
4595;SDS011;2310;49.978;8.742;2023-02-24T10:21:33;30.37;;;20.30;;
4595;SDS011;2310;49.978;8.742;2023-02-24T10:25:54;31.63;;;24.70;;
4595;SDS011;2310;49.978;8.742;2023-02-24T10:34:19;29.03;;;22.03;;
4595;SDS011;2310;49.978;8.742;2023-02-24T10:38:24;26.20;;;18.90;;
4595;SDS011;2310;49.978;8.742;2023-02-24T10:42:29;32.60;;;22.50;;
4595;SDS011;2310;49.978;8.742;2023-02-24T10:46:31;35.27;;;24.20;;
4595;SDS011;2310;49.978;8.742;2023-02-24T10:50:39;32.17;;;23.10;;
4595;SDS011;2310;49.978;8.742;2023-02-24T10:54:47;34.60;;;24.17;;
4595;SDS011;2310;49.978;8.742;2023-02-24T10:59:00;38.03;;;25.90;;
4595;SDS011;2310;49.978;8.742;2023-02-24T11:03:06;29.33;;;22.53;;
4595;SDS011;2310;49.978;8.742;2023-02-24T11:07:14;34.27;;;23.23;;
4595;SDS011;2310;49.978;8.742;2023-02-24T11:11:28;26.87;;;20.97;;
4595;SDS011;2310;49.978;8.742;2023-02-24T11:15:36;27.30;;;20.40;;
4595;SDS011;2310;49.978;8.742;2023-02-24T11:19:59;28.67;;;21.30;;
4595;SDS011;2310;49.978;8.742;2023-02-24T11:24:05;26.97;;;19.13;;
4595;SDS011;2310;49.978;8.742;2023-02-24T11:28:19;27.93;;;20.30;;
4595;SDS011;2310;49.978;8.742;2023-02-24T11:40:44;26.67;;;19.33;;
4595;SDS011;2310;49.978;8.742;2023-02-24T11:48:56;25.30;;;19.53;;
4595;SDS011;2310;49.978;8.742;2023-02-24T11:53:00;26.77;;;20.37;;
4595;SDS011;2310;49.978;8.742;2023-02-24T11:57:04;27.00;;;17.87;;
4595;SDS011;2310;49.978;8.742;2023-02-24T12:01:12;23.73;;;18.53;;
4595;SDS011;2310;49.978;8.742;2023-02-24T12:05:30;25.40;;;19.00;;
4595;SDS011;2310;49.978;8.742;2023-02-24T12:09:40;18.43;;;14.00;;
4595;SDS011;2310;49.978;8.742;2023-02-24T12:13:53;17.33;;;12.70;;
4595;SDS011;2310;49.978;8.742;2023-02-24T12:18:26;18.43;;;13.70;;
4595;SDS011;2310;49.978;8.742;2023-02-24T12:22:37;21.87;;;13.43;;
4595;SDS011;2310;49.978;8.742;2023-02-24T12:31:25;16.80;;;13.43;;
4595;SDS011;2310;49.978;8.742;2023-02-24T12:40:15;16.23;;;11.60;;
4595;SDS011;2310;49.978;8.742;2023-02-24T12:44:31;18.47;;;11.50;;
4595;SDS011;2310;49.978;8.742;2023-02-24T12:48:58;20.10;;;13.03;;
4595;SDS011;2310;49.978;8.742;2023-02-24T12:53:04;19.37;;;12.90;;
4595;SDS011;2310;49.978;8.742;2023-02-24T12:57:12;23.10;;;13.40;;
4595;SDS011;2310;49.978;8.742;2023-02-24T13:01:27;16.40;;;11.23;;
4595;SDS011;2310;49.978;8.742;2023-02-24T13:05:55;14.60;;;11.10;;
4595;SDS011;2310;49.978;8.742;2023-02-24T13:10:28;17.67;;;12.23;;
4595;SDS011;2310;49.978;8.742;2023-02-24T13:14:43;20.13;;;10.40;;
4595;SDS011;2310;49.978;8.742;2023-02-24T13:18:45;14.10;;;10.40;;
4595;SDS011;2310;49.978;8.742;2023-02-24T13:22:46;14.43;;;10.53;;
4595;SDS011;2310;49.978;8.742;2023-02-24T13:26:48;13.87;;;9.93;;
4595;SDS011;2310;49.978;8.742;2023-02-24T13:31:00;13.00;;;9.20;;
4595;SDS011;2310;49.978;8.742;2023-02-24T13:43:36;14.07;;;9.00;;
4595;SDS011;2310;49.978;8.742;2023-02-24T13:56:54;10.07;;;7.50;;
4595;SDS011;2310;49.978;8.742;2023-02-24T14:01:07;12.00;;;8.50;;
4595;SDS011;2310;49.978;8.742;2023-02-24T14:05:15;11.53;;;8.40;;
4595;SDS011;2310;49.978;8.742;2023-02-24T14:09:21;12.53;;;8.53;;
4595;SDS011;2310;49.978;8.742;2023-02-24T14:13:24;10.90;;;8.60;;
4595;SDS011;2310;49.978;8.742;2023-02-24T14:21:34;12.23;;;8.17;;
4595;SDS011;2310;49.978;8.742;2023-02-24T14:25:36;10.73;;;7.77;;
4595;SDS011;2310;49.978;8.742;2023-02-24T14:29:39;10.10;;;7.00;;
4595;SDS011;2310;49.978;8.742;2023-02-24T14:33:42;10.97;;;8.00;;
4595;SDS011;2310;49.978;8.742;2023-02-24T14:37:45;11.87;;;7.20;;
4595;SDS011;2310;49.978;8.742;2023-02-24T14:41:46;11.87;;;8.30;;
4595;SDS011;2310;49.978;8.742;2023-02-24T14:45:50;11.63;;;6.90;;
4595;SDS011;2310;49.978;8.742;2023-02-24T14:54:00;11.80;;;8.00;;
4595;SDS011;2310;49.978;8.742;2023-02-24T14:58:05;10.73;;;8.23;;
4595;SDS011;2310;49.978;8.742;2023-02-24T15:02:17;11.67;;;8.63;;
4595;SDS011;2310;49.978;8.742;2023-02-24T15:06:21;13.70;;;9.63;;
4595;SDS011;2310;49.978;8.742;2023-02-24T15:10:28;14.63;;;9.83;;
4595;SDS011;2310;49.978;8.742;2023-02-24T15:14:31;15.67;;;10.23;;
4595;SDS011;2310;49.978;8.742;2023-02-24T15:18:32;12.57;;;9.70;;
4595;SDS011;2310;49.978;8.742;2023-02-24T15:22:33;15.30;;;11.27;;
4595;SDS011;2310;49.978;8.742;2023-02-24T15:26:37;15.57;;;9.93;;
4595;SDS011;2310;49.978;8.742;2023-02-24T15:30:58;14.40;;;9.87;;
4595;SDS011;2310;49.978;8.742;2023-02-24T15:34:44;13.60;;;10.30;;
4595;SDS011;2310;49.978;8.742;2023-02-24T15:38:50;15.00;;;10.13;;
4595;SDS011;2310;49.978;8.742;2023-02-24T15:47:19;14.13;;;9.33;;
4595;SDS011;2310;49.978;8.742;2023-02-24T15:51:26;10.90;;;7.73;;
4595;SDS011;2310;49.978;8.742;2023-02-24T15:55:29;13.60;;;9.23;;
4595;SDS011;2310;49.978;8.742;2023-02-24T15:59:30;11.50;;;7.50;;
4595;SDS011;2310;49.978;8.742;2023-02-24T16:03:31;12.53;;;6.73;;
4595;SDS011;2310;49.978;8.742;2023-02-24T16:07:34;10.40;;;7.27;;
4595;SDS011;2310;49.978;8.742;2023-02-24T16:11:37;10.57;;;6.70;;
4595;SDS011;2310;49.978;8.742;2023-02-24T16:15:41;8.77;;;6.33;;
4595;SDS011;2310;49.978;8.742;2023-02-24T16:19:45;7.20;;;5.37;;
4595;SDS011;2310;49.978;8.742;2023-02-24T16:23:46;7.90;;;5.37;;
4595;SDS011;2310;49.978;8.742;2023-02-24T16:27:47;8.17;;;5.30;;
4595;SDS011;2310;49.978;8.742;2023-02-24T16:31:49;8.80;;;6.20;;
4595;SDS011;2310;49.978;8.742;2023-02-24T16:35:51;10.00;;;5.10;;
4595;SDS011;2310;49.978;8.742;2023-02-24T16:39:55;9.13;;;5.40;;
4595;SDS011;2310;49.978;8.742;2023-02-24T16:44:00;14.30;;;7.23;;
4595;SDS011;2310;49.978;8.742;2023-02-24T16:48:03;7.80;;;4.93;;
4595;SDS011;2310;49.978;8.742;2023-02-24T16:52:05;8.40;;;6.47;;
4595;SDS011;2310;49.978;8.742;2023-02-24T16:56:06;7.63;;;5.30;;
4595;SDS011;2310;49.978;8.742;2023-02-24T17:00:08;9.50;;;5.00;;
4595;SDS011;2310;49.978;8.742;2023-02-24T17:04:11;9.90;;;4.97;;
4595;SDS011;2310;49.978;8.742;2023-02-24T17:08:14;9.40;;;5.57;;
4595;SDS011;2310;49.978;8.742;2023-02-24T17:12:18;8.40;;;6.10;;
4595;SDS011;2310;49.978;8.742;2023-02-24T17:16:21;8.93;;;5.63;;
4595;SDS011;2310;49.978;8.742;2023-02-24T17:20:23;11.43;;;5.70;;
4595;SDS011;2310;49.978;8.742;2023-02-24T17:24:24;8.07;;;4.57;;
4595;SDS011;2310;49.978;8.742;2023-02-24T17:28:25;8.43;;;5.20;;
4595;SDS011;2310;49.978;8.742;2023-02-24T17:32:27;8.60;;;5.17;;
4595;SDS011;2310;49.978;8.742;2023-02-24T17:36:28;8.70;;;5.67;;
4595;SDS011;2310;49.978;8.742;2023-02-24T17:40:29;7.20;;;3.90;;
4595;SDS011;2310;49.978;8.742;2023-02-24T17:44:33;7.23;;;4.67;;
4595;SDS011;2310;49.978;8.742;2023-02-24T17:48:35;7.23;;;3.90;;
4595;SDS011;2310;49.978;8.742;2023-02-24T17:52:36;9.97;;;4.90;;
4595;SDS011;2310;49.978;8.742;2023-02-24T17:56:37;7.20;;;4.60;;
4595;SDS011;2310;49.978;8.742;2023-02-24T18:00:39;7.43;;;4.20;;
4595;SDS011;2310;49.978;8.742;2023-02-24T18:04:41;7.67;;;4.20;;
4595;SDS011;2310;49.978;8.742;2023-02-24T18:08:42;7.37;;;5.27;;
4595;SDS011;2310;49.978;8.742;2023-02-24T18:12:44;6.67;;;4.10;;
4595;SDS011;2310;49.978;8.742;2023-02-24T18:16:45;6.60;;;4.70;;
4595;SDS011;2310;49.978;8.742;2023-02-24T18:20:46;7.80;;;4.10;;
4595;SDS011;2310;49.978;8.742;2023-02-24T18:24:47;7.30;;;4.80;;
4595;SDS011;2310;49.978;8.742;2023-02-24T18:28:48;8.20;;;4.37;;
4595;SDS011;2310;49.978;8.742;2023-02-24T18:32:52;6.63;;;4.77;;
4595;SDS011;2310;49.978;8.742;2023-02-24T18:36:53;7.77;;;4.93;;
4595;SDS011;2310;49.978;8.742;2023-02-24T18:40:55;7.03;;;5.23;;
4595;SDS011;2310;49.978;8.742;2023-02-24T18:44:58;10.57;;;4.53;;
4595;SDS011;2310;49.978;8.742;2023-02-24T18:49:00;6.50;;;4.40;;
4595;SDS011;2310;49.978;8.742;2023-02-24T18:53:01;6.37;;;4.33;;
4595;SDS011;2310;49.978;8.742;2023-02-24T18:57:02;8.10;;;5.60;;
4595;SDS011;2310;49.978;8.742;2023-02-24T19:01:14;8.20;;;4.97;;
4595;SDS011;2310;49.978;8.742;2023-02-24T19:05:17;7.00;;;4.93;;
4595;SDS011;2310;49.978;8.742;2023-02-24T19:09:18;9.73;;;5.80;;
4595;SDS011;2310;49.978;8.742;2023-02-24T19:13:21;6.90;;;4.10;;
4595;SDS011;2310;49.978;8.742;2023-02-24T19:17:23;6.63;;;4.40;;
4595;SDS011;2310;49.978;8.742;2023-02-24T19:21:25;7.20;;;5.03;;
4595;SDS011;2310;49.978;8.742;2023-02-24T19:25:27;5.50;;;4.20;;
4595;SDS011;2310;49.978;8.742;2023-02-24T19:29:30;8.30;;;4.83;;
4595;SDS011;2310;49.978;8.742;2023-02-24T19:33:31;8.07;;;5.27;;
4595;SDS011;2310;49.978;8.742;2023-02-24T19:37:32;7.53;;;4.60;;
4595;SDS011;2310;49.978;8.742;2023-02-24T19:41:34;7.13;;;4.10;;
4595;SDS011;2310;49.978;8.742;2023-02-24T19:45:44;6.00;;;4.40;;
4595;SDS011;2310;49.978;8.742;2023-02-24T19:49:43;6.47;;;4.77;;
4595;SDS011;2310;49.978;8.742;2023-02-24T19:53:44;6.97;;;5.40;;
4595;SDS011;2310;49.978;8.742;2023-02-24T19:57:45;7.63;;;6.20;;
4595;SDS011;2310;49.978;8.742;2023-02-24T20:01:48;9.63;;;6.60;;
4595;SDS011;2310;49.978;8.742;2023-02-24T20:05:51;8.03;;;5.10;;
4595;SDS011;2310;49.978;8.742;2023-02-24T20:09:52;6.80;;;5.10;;
4595;SDS011;2310;49.978;8.742;2023-02-24T20:13:54;7.97;;;5.70;;
4595;SDS011;2310;49.978;8.742;2023-02-24T20:17:55;7.20;;;5.37;;
4595;SDS011;2310;49.978;8.742;2023-02-24T20:21:59;8.27;;;5.20;;
4595;SDS011;2310;49.978;8.742;2023-02-24T20:26:01;9.30;;;6.80;;
4595;SDS011;2310;49.978;8.742;2023-02-24T20:30:03;7.67;;;6.20;;
4595;SDS011;2310;49.978;8.742;2023-02-24T20:34:06;13.30;;;6.90;;
4595;SDS011;2310;49.978;8.742;2023-02-24T20:38:10;9.80;;;6.83;;
4595;SDS011;2310;49.978;8.742;2023-02-24T20:42:12;8.37;;;6.13;;
4595;SDS011;2310;49.978;8.742;2023-02-24T20:46:22;10.40;;;6.37;;
4595;SDS011;2310;49.978;8.742;2023-02-24T20:50:24;9.87;;;7.20;;
4595;SDS011;2310;49.978;8.742;2023-02-24T20:54:26;8.37;;;7.00;;
4595;SDS011;2310;49.978;8.742;2023-02-24T20:58:28;13.87;;;7.20;;
4595;SDS011;2310;49.978;8.742;2023-02-24T21:02:29;8.23;;;7.27;;
4595;SDS011;2310;49.978;8.742;2023-02-24T21:06:30;9.33;;;7.17;;
4595;SDS011;2310;49.978;8.742;2023-02-24T21:10:32;12.20;;;10.10;;
4595;SDS011;2310;49.978;8.742;2023-02-24T21:14:33;8.80;;;7.67;;
4595;SDS011;2310;49.978;8.742;2023-02-24T21:18:36;10.87;;;7.20;;
4595;SDS011;2310;49.978;8.742;2023-02-24T21:22:39;7.63;;;6.53;;
4595;SDS011;2310;49.978;8.742;2023-02-24T21:26:41;15.40;;;7.20;;
4595;SDS011;2310;49.978;8.742;2023-02-24T21:30:42;11.73;;;8.40;;
4595;SDS011;2310;49.978;8.742;2023-02-24T21:34:44;10.60;;;8.13;;
4595;SDS011;2310;49.978;8.742;2023-02-24T21:38:45;10.37;;;8.60;;
4595;SDS011;2310;49.978;8.742;2023-02-24T21:42:47;11.10;;;8.13;;
4595;SDS011;2310;49.978;8.742;2023-02-24T21:46:48;9.90;;;7.60;;
4595;SDS011;2310;49.978;8.742;2023-02-24T21:51:05;11.13;;;7.70;;
4595;SDS011;2310;49.978;8.742;2023-02-24T21:55:09;10.30;;;7.80;;
4595;SDS011;2310;49.978;8.742;2023-02-24T21:59:10;10.63;;;7.53;;
4595;SDS011;2310;49.978;8.742;2023-02-24T22:03:12;9.53;;;7.23;;
4595;SDS011;2310;49.978;8.742;2023-02-24T22:07:13;11.40;;;8.33;;
4595;SDS011;2310;49.978;8.742;2023-02-24T22:11:15;10.07;;;8.70;;
4595;SDS011;2310;49.978;8.742;2023-02-24T22:15:17;8.60;;;7.10;;
4595;SDS011;2310;49.978;8.742;2023-02-24T22:19:18;12.33;;;7.90;;
4595;SDS011;2310;49.978;8.742;2023-02-24T22:23:20;9.73;;;7.83;;
4595;SDS011;2310;49.978;8.742;2023-02-24T22:27:21;10.23;;;7.73;;
4595;SDS011;2310;49.978;8.742;2023-02-24T22:31:24;8.00;;;4.90;;
4595;SDS011;2310;49.978;8.742;2023-02-24T22:35:26;5.53;;;3.40;;
4595;SDS011;2310;49.978;8.742;2023-02-24T22:39:28;5.27;;;2.80;;
4595;SDS011;2310;49.978;8.742;2023-02-24T22:43:29;6.40;;;3.30;;
4595;SDS011;2310;49.978;8.742;2023-02-24T22:47:31;6.30;;;2.53;;
4595;SDS011;2310;49.978;8.742;2023-02-24T22:51:32;5.97;;;2.60;;
4595;SDS011;2310;49.978;8.742;2023-02-24T22:55:33;6.53;;;3.13;;
4595;SDS011;2310;49.978;8.742;2023-02-24T22:59:34;6.53;;;2.90;;
4595;SDS011;2310;49.978;8.742;2023-02-24T23:03:35;4.33;;;2.60;;
4595;SDS011;2310;49.978;8.742;2023-02-24T23:07:37;6.73;;;3.30;;
4595;SDS011;2310;49.978;8.742;2023-02-24T23:11:39;8.73;;;2.67;;
4595;SDS011;2310;49.978;8.742;2023-02-24T23:15:41;8.13;;;3.20;;
4595;SDS011;2310;49.978;8.742;2023-02-24T23:19:42;6.80;;;2.83;;
4595;SDS011;2310;49.978;8.742;2023-02-24T23:23:44;7.60;;;4.00;;
4595;SDS011;2310;49.978;8.742;2023-02-24T23:27:45;5.63;;;3.13;;
4595;SDS011;2310;49.978;8.742;2023-02-24T23:31:47;7.23;;;3.10;;
4595;SDS011;2310;49.978;8.742;2023-02-24T23:35:48;7.60;;;2.93;;
4595;SDS011;2310;49.978;8.742;2023-02-24T23:39:49;5.77;;;2.50;;
4595;SDS011;2310;49.978;8.742;2023-02-24T23:43:51;6.27;;;3.50;;
4595;SDS011;2310;49.978;8.742;2023-02-24T23:47:52;6.77;;;3.63;;
4595;SDS011;2310;49.978;8.742;2023-02-24T23:51:53;10.10;;;4.10;;
4595;SDS011;2310;49.978;8.742;2023-02-24T23:55:54;5.93;;;3.23;;
4595;SDS011;2310;49.978;8.742;2023-02-24T23:59:55;5.87;;;3.13;;
